createdAt,value
2019-06-27T00:00:29.458Z,19.43
2019-06-27T00:02:57.000Z,20.23
2019-06-27T00:05:24.658Z,18.70
2019-06-27T00:07:52.255Z,19.53
2019-06-27T00:10:19.847Z,19.43
2019-06-27T00:12:47.535Z,19.90
2019-06-27T00:15:15.132Z,21.73
2019-06-27T00:17:42.725Z,19.37
2019-06-27T00:20:10.385Z,20.53
2019-06-27T00:22:40.235Z,20.57
2019-06-27T00:25:05.587Z,19.47
2019-06-27T00:27:33.182Z,22.73
2019-06-27T00:30:00.819Z,21.30
2019-06-27T00:32:28.453Z,23.02
2019-06-27T00:34:56.820Z,20.77
2019-06-27T00:37:24.410Z,20.00
2019-06-27T00:39:52.045Z,21.37
2019-06-27T00:42:19.643Z,20.77
2019-06-27T00:44:47.308Z,20.77
2019-06-27T00:47:14.896Z,21.47
2019-06-27T00:49:42.503Z,20.57
2019-06-27T00:52:10.089Z,22.58
2019-06-27T00:54:37.672Z,21.00
2019-06-27T00:57:13.953Z,20.80
2019-06-27T00:59:32.861Z,20.53
2019-06-27T01:02:00.463Z,18.70
2019-06-27T01:04:28.100Z,19.73
2019-06-27T01:06:55.707Z,20.63
2019-06-27T01:09:23.799Z,20.37
2019-06-27T01:11:51.393Z,21.23
2019-06-27T01:14:18.989Z,21.63
2019-06-27T01:16:46.645Z,21.30
2019-06-27T01:19:14.252Z,20.43
2019-06-27T01:21:41.864Z,22.70
2019-06-27T01:24:09.519Z,20.93
2019-06-27T01:26:37.116Z,19.57
2019-06-27T01:31:37.744Z,20.17
2019-06-27T01:34:05.366Z,19.20
2019-06-27T01:36:32.948Z,20.00
2019-06-27T01:39:00.545Z,20.83
2019-06-27T01:41:28.145Z,20.67
2019-06-27T01:43:55.741Z,24.58
2019-06-27T01:46:23.326Z,20.03
2019-06-27T01:48:50.991Z,19.77
2019-06-27T01:51:18.586Z,22.73
2019-06-27T01:53:47.017Z,20.23
2019-06-27T01:56:14.619Z,19.93
2019-06-27T01:58:42.208Z,19.00
2019-06-27T02:01:10.077Z,19.70
2019-06-27T02:03:37.664Z,21.07
2019-06-27T02:06:05.237Z,20.43
2019-06-27T02:08:32.873Z,20.33
2019-06-27T02:11:01.245Z,19.13
2019-06-27T02:13:28.846Z,19.07
2019-06-27T02:15:56.482Z,19.03
2019-06-27T02:18:24.070Z,19.10
2019-06-27T02:20:51.749Z,20.07
2019-06-27T02:23:19.339Z,19.10
2019-06-27T02:25:46.929Z,18.90
2019-06-27T02:28:14.757Z,18.03
2019-06-27T02:30:42.357Z,18.40
2019-06-27T02:33:10.012Z,17.97
2019-06-27T02:35:37.699Z,17.20
2019-06-27T02:38:05.291Z,17.70
2019-06-27T02:40:32.888Z,17.43
2019-06-27T02:43:00.589Z,17.73
2019-06-27T02:45:28.143Z,18.10
2019-06-27T02:47:55.803Z,17.20
2019-06-27T02:50:23.450Z,16.73
2019-06-27T02:52:51.052Z,16.50
2019-06-27T02:55:18.718Z,16.47
2019-06-27T02:57:46.314Z,16.57
2019-06-27T03:00:13.918Z,15.83
2019-06-27T03:02:41.575Z,14.67
2019-06-27T03:05:09.184Z,15.63
2019-06-27T03:07:36.815Z,15.50
2019-06-27T03:10:07.255Z,14.87
2019-06-27T03:12:34.829Z,15.20
2019-06-27T03:15:02.477Z,14.13
2019-06-27T03:17:30.059Z,15.83
2019-06-27T03:19:57.671Z,14.67
2019-06-27T03:22:26.095Z,15.03
2019-06-27T03:24:53.683Z,15.87
2019-06-27T03:27:21.271Z,16.53
2019-06-27T03:32:21.903Z,16.10
2019-06-27T03:34:49.482Z,16.27
2019-06-27T03:37:17.766Z,15.00
2019-06-27T03:39:45.281Z,14.77
2019-06-27T03:42:12.942Z,16.33
2019-06-27T03:44:40.594Z,15.77
2019-06-27T03:47:08.196Z,15.07
2019-06-27T03:49:35.868Z,13.97
2019-06-27T03:52:03.510Z,14.53
2019-06-27T03:54:31.062Z,14.13
2019-06-27T03:56:59.493Z,15.53
2019-06-27T03:59:27.088Z,14.63
2019-06-27T04:01:54.682Z,13.90
2019-06-27T04:04:22.343Z,14.00
2019-06-27T04:06:49.949Z,13.37
2019-06-27T04:09:17.613Z,13.63
2019-06-27T04:11:45.247Z,13.43
2019-06-27T04:14:12.838Z,13.60
2019-06-27T04:16:40.506Z,13.60
2019-06-27T04:19:08.103Z,14.57
2019-06-27T04:21:36.462Z,13.83
2019-06-27T04:24:04.107Z,13.00
2019-06-27T04:26:31.711Z,12.93
2019-06-27T04:29:04.073Z,13.62
2019-06-27T04:31:31.670Z,12.33
2019-06-27T04:33:59.293Z,12.30
2019-06-27T04:36:26.969Z,12.73
2019-06-27T04:38:54.570Z,11.70
2019-06-27T04:41:22.753Z,11.50
2019-06-27T04:43:50.344Z,12.17
2019-06-27T04:46:17.933Z,11.07
2019-06-27T04:48:45.541Z,11.00
2019-06-27T04:51:13.118Z,11.67
2019-06-27T04:53:40.727Z,10.90
2019-06-27T04:56:08.314Z,11.20
2019-06-27T04:58:35.934Z,10.87
2019-06-27T05:01:03.653Z,11.00
2019-06-27T05:03:32.983Z,11.77
2019-06-27T05:05:59.808Z,10.37
2019-06-27T05:08:27.696Z,10.67
2019-06-27T05:10:55.227Z,10.63
2019-06-27T05:13:24.582Z,12.55
2019-06-27T05:15:50.942Z,10.93
2019-06-27T05:18:18.591Z,10.23
2019-06-27T05:20:47.583Z,10.83
2019-06-27T05:23:15.276Z,10.47
2019-06-27T05:25:42.925Z,10.20
2019-06-27T05:28:10.576Z,9.17
2019-06-27T05:30:40.687Z,9.37
2019-06-27T05:33:10.938Z,10.00
2019-06-27T05:35:38.587Z,9.27
2019-06-27T05:38:06.178Z,8.80
2019-06-27T05:40:33.761Z,7.80
2019-06-27T05:43:01.362Z,9.43
2019-06-27T05:45:28.948Z,9.00
2019-06-27T05:47:56.559Z,7.87
2019-06-27T05:50:24.139Z,8.20
2019-06-27T05:52:51.719Z,8.37
2019-06-27T05:55:19.345Z,9.17
2019-06-27T05:57:46.918Z,8.20
2019-06-27T06:00:27.710Z,8.63
2019-06-27T06:02:43.638Z,8.63
2019-06-27T06:05:11.210Z,8.67
2019-06-27T06:07:38.817Z,8.77
2019-06-27T06:10:06.399Z,9.45
2019-06-27T06:12:34.304Z,8.37
2019-06-27T06:15:01.909Z,8.33
2019-06-27T06:17:29.494Z,9.45
2019-06-27T06:19:57.508Z,8.37
2019-06-27T06:22:25.095Z,8.00
2019-06-27T06:24:53.447Z,7.33
2019-06-27T06:27:21.089Z,7.20
2019-06-27T06:29:48.650Z,7.73
2019-06-27T06:32:16.232Z,7.90
2019-06-27T06:34:43.832Z,7.97
2019-06-27T06:37:11.410Z,7.27
2019-06-27T06:39:39.020Z,7.07
2019-06-27T06:42:06.600Z,6.47
2019-06-27T06:44:34.944Z,6.43
2019-06-27T06:47:02.558Z,7.17
2019-06-27T06:49:30.159Z,6.62
2019-06-27T06:51:57.759Z,6.53
2019-06-27T06:54:26.176Z,6.20
2019-06-27T06:56:53.760Z,6.60
2019-06-27T06:59:21.734Z,6.10
2019-06-27T07:01:49.339Z,5.97
2019-06-27T07:04:16.936Z,6.17
2019-06-27T07:06:44.590Z,5.50
2019-06-27T07:09:12.265Z,4.83
2019-06-27T07:11:39.836Z,5.13
2019-06-27T07:14:07.472Z,5.77
2019-06-27T07:16:35.049Z,4.63
2019-06-27T07:19:02.620Z,4.70
2019-06-27T07:21:30.223Z,4.70
2019-06-27T07:23:57.801Z,4.50
2019-06-27T07:26:25.435Z,4.40
2019-06-27T07:28:53.037Z,4.50
2019-06-27T07:31:20.640Z,3.60
2019-06-27T07:33:48.251Z,4.00
2019-06-27T07:36:15.867Z,4.33
2019-06-27T07:38:46.913Z,3.70
2019-06-27T07:41:11.039Z,4.17
2019-06-27T07:43:38.615Z,4.20
2019-06-27T07:46:06.190Z,4.17
2019-06-27T07:48:33.828Z,3.70
2019-06-27T07:51:01.440Z,3.57
2019-06-27T07:53:28.989Z,3.67
2019-06-27T07:55:56.874Z,3.60
2019-06-27T07:58:24.183Z,3.60
2019-06-27T08:00:51.762Z,3.73
2019-06-27T08:03:19.422Z,3.70
2019-06-27T08:05:46.972Z,4.80
2019-06-27T08:08:14.553Z,3.90
2019-06-27T08:10:42.187Z,3.63
2019-06-27T08:13:09.776Z,3.93
2019-06-27T08:15:37.368Z,3.40
2019-06-27T08:18:04.975Z,3.90
2019-06-27T08:20:32.869Z,4.07
2019-06-27T08:23:01.571Z,3.80
2019-06-27T08:25:29.158Z,3.87
2019-06-27T08:27:56.729Z,4.15
2019-06-27T08:30:24.344Z,4.03
2019-06-27T08:32:51.925Z,3.70
2019-06-27T08:35:19.493Z,3.57
2019-06-27T08:37:47.104Z,3.60
2019-06-27T08:40:14.696Z,3.93
2019-06-27T08:42:42.298Z,4.10
2019-06-27T08:45:10.684Z,3.30
2019-06-27T08:47:38.219Z,3.50
2019-06-27T08:50:05.854Z,4.00
2019-06-27T08:52:33.428Z,3.58
2019-06-27T08:55:01.021Z,3.70
2019-06-27T08:57:29.006Z,3.33
2019-06-27T08:59:56.544Z,3.40
2019-06-27T09:02:24.124Z,3.65
2019-06-27T09:04:51.727Z,3.60
2019-06-27T09:07:19.311Z,3.40
2019-06-27T09:09:47.011Z,3.53
2019-06-27T09:12:15.351Z,4.17
2019-06-27T09:14:42.936Z,3.43
2019-06-27T09:17:10.676Z,3.50
2019-06-27T09:19:38.266Z,3.17
2019-06-27T09:22:05.831Z,3.50
2019-06-27T09:24:34.266Z,3.30
2019-06-27T09:27:01.841Z,3.30
2019-06-27T09:29:29.422Z,3.33
2019-06-27T09:31:57.033Z,3.27
2019-06-27T09:34:25.020Z,3.20
2019-06-27T09:36:52.665Z,3.53
2019-06-27T09:39:20.275Z,3.50
2019-06-27T09:41:47.892Z,3.20
2019-06-27T09:44:15.535Z,3.50
2019-06-27T09:46:43.109Z,3.17
2019-06-27T09:49:10.754Z,3.40
2019-06-27T09:51:38.338Z,3.47
2019-06-27T09:54:05.918Z,3.20
2019-06-27T09:56:33.533Z,3.53
2019-06-27T09:59:01.114Z,3.47
2019-06-27T10:01:29.255Z,3.37
2019-06-27T10:03:56.829Z,3.20
2019-06-27T10:06:26.325Z,3.95
2019-06-27T10:08:52.795Z,3.50
2019-06-27T10:11:20.371Z,3.50
2019-06-27T10:13:48.656Z,2.93
2019-06-27T10:16:17.658Z,3.40
2019-06-27T10:18:45.239Z,3.80
2019-06-27T10:21:12.836Z,3.77
2019-06-27T10:23:40.426Z,3.10
2019-06-27T10:26:08.052Z,3.43
2019-06-27T10:28:36.395Z,3.70
2019-06-27T10:31:03.978Z,3.83
2019-06-27T10:33:31.588Z,3.17
2019-06-27T10:35:59.214Z,3.73
2019-06-27T10:38:26.791Z,3.73
2019-06-27T10:40:54.390Z,4.00
2019-06-27T10:43:21.959Z,3.70
2019-06-27T10:45:49.611Z,3.77
2019-06-27T10:48:17.689Z,4.00
2019-06-27T10:50:46.623Z,3.63
2019-06-27T10:53:13.271Z,3.65
2019-06-27T10:55:41.614Z,4.10
2019-06-27T10:58:09.214Z,4.17
2019-06-27T11:00:37.584Z,4.15
2019-06-27T11:03:14.812Z,4.00
2019-06-27T11:05:32.832Z,4.30
2019-06-27T11:08:00.403Z,4.30
2019-06-27T11:10:27.981Z,4.47
2019-06-27T11:12:59.190Z,4.70
2019-06-27T11:15:23.163Z,4.57
2019-06-27T11:17:51.315Z,4.50
2019-06-27T11:20:18.879Z,4.60
2019-06-27T11:22:46.460Z,4.50
2019-06-27T11:25:14.845Z,4.33
2019-06-27T11:27:43.186Z,4.30
2019-06-27T11:30:10.825Z,4.33
2019-06-27T11:32:38.372Z,4.60
2019-06-27T11:35:05.962Z,4.73
2019-06-27T11:37:33.647Z,4.53
2019-06-27T11:40:01.173Z,4.97
2019-06-27T11:42:29.897Z,4.50
2019-06-27T11:44:56.352Z,4.90
2019-06-27T11:47:24.699Z,4.30
2019-06-27T11:49:52.316Z,4.57
2019-06-27T11:52:19.919Z,4.63
2019-06-27T11:54:47.520Z,4.60
2019-06-27T11:57:15.921Z,4.63
2019-06-27T11:59:43.511Z,5.10
2019-06-27T12:02:11.370Z,4.60
2019-06-27T12:04:38.975Z,4.95
2019-06-27T12:07:06.555Z,4.70
2019-06-27T12:09:34.176Z,4.33
2019-06-27T12:12:01.773Z,4.33
2019-06-27T12:14:30.107Z,4.40
2019-06-27T12:16:57.718Z,4.70
2019-06-27T12:19:26.082Z,4.80
2019-06-27T12:21:54.438Z,4.90
2019-06-27T12:24:22.064Z,4.63
2019-06-27T12:26:49.635Z,4.23
2019-06-27T12:29:17.210Z,4.60
2019-06-27T12:31:44.813Z,4.07
2019-06-27T12:34:13.188Z,4.97
2019-06-27T12:36:40.838Z,4.47
2019-06-27T12:39:08.414Z,4.67
2019-06-27T12:41:35.998Z,4.40
2019-06-27T12:44:03.614Z,5.35
2019-06-27T12:46:31.271Z,4.23
2019-06-27T12:48:58.871Z,4.50
2019-06-27T12:51:26.486Z,4.10
2019-06-27T12:53:55.893Z,4.70
2019-06-27T12:56:21.686Z,4.00
2019-06-27T12:58:49.265Z,4.37
2019-06-27T13:01:16.902Z,4.10
2019-06-27T13:03:44.465Z,4.10
2019-06-27T13:06:12.068Z,3.40
2019-06-27T13:08:40.027Z,3.60
2019-06-27T13:11:07.596Z,3.60
2019-06-27T13:13:35.585Z,3.50
2019-06-27T13:16:03.168Z,2.92
2019-06-27T13:18:31.514Z,2.47
2019-06-27T13:20:59.115Z,2.70
2019-06-27T13:23:26.703Z,2.73
2019-06-27T13:25:54.306Z,2.27
2019-06-27T13:28:21.879Z,2.70
2019-06-27T13:30:49.468Z,2.67
2019-06-27T13:33:17.885Z,2.80
2019-06-27T13:35:48.986Z,2.80
2019-06-27T13:38:13.351Z,3.17
2019-06-27T13:40:40.929Z,3.30
2019-06-27T13:43:08.560Z,2.30
2019-06-27T13:45:36.169Z,2.30
2019-06-27T13:48:03.739Z,2.20
2019-06-27T13:50:31.425Z,2.23
2019-06-27T13:52:59.007Z,2.30
2019-06-27T13:55:26.609Z,2.23
2019-06-27T13:57:57.534Z,2.20
2019-06-27T14:00:40.225Z,2.53
2019-06-27T14:03:08.284Z,2.55
2019-06-27T14:05:35.862Z,2.17
2019-06-27T14:08:03.462Z,2.00
2019-06-27T14:10:31.109Z,2.10
2019-06-27T14:12:59.453Z,1.87
2019-06-27T14:15:27.023Z,2.07
2019-06-27T14:17:54.834Z,1.90
2019-06-27T14:20:22.386Z,1.73
2019-06-27T14:22:49.986Z,2.00
2019-06-27T14:25:17.776Z,1.83
2019-06-27T14:27:45.347Z,2.00
2019-06-27T14:30:13.874Z,1.30
2019-06-27T14:32:41.398Z,1.40
2019-06-27T14:35:15.845Z,1.37
2019-06-27T14:37:37.686Z,1.30
2019-06-27T14:40:05.473Z,1.40
2019-06-27T14:42:33.050Z,1.57
2019-06-27T14:45:00.655Z,1.30
2019-06-27T14:47:28.238Z,1.50
2019-06-27T14:49:55.874Z,1.83
2019-06-27T14:52:23.448Z,1.80
2019-06-27T14:54:51.019Z,1.50
2019-06-27T14:57:18.592Z,1.70
2019-06-27T14:59:46.228Z,1.20
2019-06-27T15:02:16.629Z,1.53
2019-06-27T15:04:44.221Z,1.23
2019-06-27T15:07:11.791Z,1.50
2019-06-27T15:09:39.374Z,1.63
2019-06-27T15:12:06.955Z,1.23
2019-06-27T15:14:35.450Z,1.10
2019-06-27T15:17:03.021Z,1.27
2019-06-27T15:19:30.614Z,1.20
2019-06-27T15:21:58.247Z,1.10
2019-06-27T15:24:25.822Z,1.20
2019-06-27T15:26:54.182Z,1.10
2019-06-27T15:29:21.814Z,1.13
2019-06-27T15:31:49.387Z,1.30
2019-06-27T15:34:16.957Z,0.93
2019-06-27T15:36:44.591Z,0.90
2019-06-27T15:39:12.237Z,1.13
2019-06-27T15:41:39.748Z,0.97
2019-06-27T15:44:07.354Z,0.93
2019-06-27T15:46:34.932Z,1.10
2019-06-27T15:49:02.558Z,0.90
2019-06-27T15:51:30.129Z,1.13
2019-06-27T15:53:57.717Z,1.27
2019-06-27T15:56:25.311Z,0.90
2019-06-27T15:58:52.885Z,0.90
2019-06-27T16:01:20.764Z,1.10
2019-06-27T16:03:48.342Z,0.90
2019-06-27T16:06:15.909Z,1.00
2019-06-27T16:08:43.515Z,1.20
2019-06-27T16:11:11.100Z,0.80
2019-06-27T16:13:38.719Z,0.90
2019-06-27T16:16:06.297Z,1.20
2019-06-27T16:18:33.870Z,0.80
2019-06-27T16:21:01.478Z,1.10
2019-06-27T16:23:29.063Z,1.13
2019-06-27T16:25:57.210Z,1.33
2019-06-27T16:28:27.087Z,1.20
2019-06-27T16:30:52.359Z,1.40
2019-06-27T16:33:19.978Z,1.50
2019-06-27T16:35:47.546Z,1.30
2019-06-27T16:38:15.176Z,1.60
2019-06-27T16:40:42.756Z,1.33
2019-06-27T16:43:10.329Z,1.23
2019-06-27T16:45:40.455Z,1.20
2019-06-27T16:48:05.519Z,1.37
2019-06-27T16:50:33.149Z,0.90
2019-06-27T16:53:00.779Z,1.15
2019-06-27T16:55:28.358Z,1.23
2019-06-27T16:57:55.970Z,1.00
2019-06-27T17:00:23.545Z,0.93
2019-06-27T17:02:51.191Z,1.00
2019-06-27T17:05:18.781Z,1.10
2019-06-27T17:07:47.121Z,0.93
2019-06-27T17:10:14.725Z,1.10
2019-06-27T17:12:43.107Z,1.23
2019-06-27T17:15:10.706Z,1.02
2019-06-27T17:17:39.392Z,1.10
2019-06-27T17:20:07.269Z,1.07
2019-06-27T17:22:34.874Z,1.17
2019-06-27T17:25:02.453Z,1.10
2019-06-27T17:27:30.077Z,1.00
2019-06-27T17:29:57.657Z,1.00
2019-06-27T17:32:25.230Z,1.25
2019-06-27T17:34:53.600Z,1.10
2019-06-27T17:37:21.178Z,1.17
2019-06-27T17:39:48.805Z,1.30
2019-06-27T17:42:16.372Z,1.10
2019-06-27T17:44:43.957Z,1.20
2019-06-27T17:47:12.395Z,1.97
2019-06-27T17:49:39.967Z,1.50
2019-06-27T17:52:08.122Z,1.60
2019-06-27T17:54:35.725Z,1.43
2019-06-27T17:57:03.297Z,1.50
2019-06-27T17:59:31.684Z,1.63
2019-06-27T18:01:59.256Z,1.77
2019-06-27T18:04:26.831Z,1.77
2019-06-27T18:06:54.455Z,2.10
2019-06-27T18:09:22.037Z,2.00
2019-06-27T18:11:49.668Z,1.97
2019-06-27T18:14:17.241Z,1.57
2019-06-27T18:16:45.594Z,2.40
2019-06-27T18:19:13.250Z,2.20
2019-06-27T18:21:40.829Z,2.10
2019-06-27T18:24:08.409Z,2.10
2019-06-27T18:26:36.028Z,2.23
2019-06-27T18:29:03.608Z,2.10
2019-06-27T18:31:31.552Z,2.17
2019-06-27T18:33:59.133Z,2.27
2019-06-27T18:36:26.749Z,2.10
2019-06-27T18:38:54.330Z,2.20
2019-06-27T18:41:21.924Z,2.30
2019-06-27T18:43:49.552Z,2.30
2019-06-27T18:46:17.129Z,2.20
2019-06-27T18:48:44.712Z,2.10
2019-06-27T18:51:12.347Z,2.20
2019-06-27T18:53:39.946Z,1.77
2019-06-27T18:56:07.533Z,2.40
2019-06-27T18:58:35.540Z,2.37
2019-06-27T19:01:03.143Z,2.17
2019-06-27T19:03:30.710Z,2.13
2019-06-27T19:05:58.336Z,2.30
2019-06-27T19:08:25.910Z,2.53
2019-06-27T19:10:53.486Z,2.03
2019-06-27T19:13:21.139Z,2.62
2019-06-27T19:15:48.693Z,2.33
2019-06-27T19:18:34.219Z,2.40
2019-06-27T19:21:01.793Z,2.17
2019-06-27T19:23:32.263Z,2.13
2019-06-27T19:26:00.547Z,2.47
2019-06-27T19:28:28.125Z,2.13
2019-06-27T19:30:55.699Z,2.20
2019-06-27T19:33:24.132Z,2.20
2019-06-27T19:35:51.742Z,2.57
2019-06-27T19:38:19.337Z,2.70
2019-06-27T19:40:46.932Z,2.20
2019-06-27T19:43:27.108Z,2.97
2019-06-27T19:45:42.138Z,2.10
2019-06-27T19:48:09.712Z,2.23
2019-06-27T19:50:37.287Z,2.30
2019-06-27T19:53:04.903Z,2.30
2019-06-27T19:55:32.474Z,2.23
2019-06-27T19:58:00.523Z,2.37
2019-06-27T20:00:28.021Z,2.20
2019-06-27T20:02:55.595Z,2.13
2019-06-27T20:05:23.205Z,2.37
2019-06-27T20:07:50.780Z,2.78
2019-06-27T20:10:18.406Z,2.33
2019-06-27T20:12:45.994Z,2.80
2019-06-27T20:15:13.575Z,2.47
2019-06-27T20:17:41.170Z,3.03
2019-06-27T20:20:08.766Z,2.30
2019-06-27T20:22:36.378Z,2.62
2019-06-27T20:25:03.967Z,3.00
2019-06-27T20:27:31.559Z,2.63
2019-06-27T20:29:59.943Z,2.30
2019-06-27T20:32:27.924Z,2.50
2019-06-27T20:34:55.442Z,2.50
2019-06-27T20:37:23.007Z,2.47
2019-06-27T20:39:50.584Z,2.23
2019-06-27T20:42:18.187Z,2.17
2019-06-27T20:44:45.766Z,2.37
2019-06-27T20:47:13.338Z,2.33
2019-06-27T20:49:42.353Z,2.33
2019-06-27T20:52:10.703Z,2.50
2019-06-27T20:54:38.301Z,2.57
2019-06-27T20:57:06.646Z,2.27
2019-06-27T20:59:34.271Z,2.30
2019-06-27T21:02:01.856Z,2.70
2019-06-27T21:04:29.428Z,2.60
2019-06-27T21:06:57.036Z,2.50
2019-06-27T21:09:24.626Z,2.87
2019-06-27T21:11:52.603Z,2.43
2019-06-27T21:14:20.200Z,2.70
2019-06-27T21:16:47.778Z,2.30
2019-06-27T21:19:15.380Z,2.60
2019-06-27T21:21:42.957Z,2.93
2019-06-27T21:24:10.570Z,2.43
2019-06-27T21:26:38.162Z,2.58
2019-06-27T21:29:05.770Z,2.10
2019-06-27T21:31:33.366Z,2.53
2019-06-27T21:34:01.010Z,2.50
2019-06-27T21:36:28.560Z,2.90
2019-06-27T21:39:07.153Z,2.47
2019-06-27T21:41:23.757Z,2.50
2019-06-27T21:43:51.345Z,2.53
2019-06-27T21:46:18.957Z,2.77
2019-06-27T21:48:46.530Z,2.53
2019-06-27T21:51:14.139Z,2.17
2019-06-27T21:53:41.712Z,2.33
2019-06-27T21:56:09.290Z,2.80
2019-06-27T21:58:36.892Z,2.33
2019-06-27T22:01:04.485Z,2.30
2019-06-27T22:03:32.839Z,2.57
2019-06-27T22:06:00.455Z,2.47
2019-06-27T22:08:28.059Z,2.70
2019-06-27T22:10:55.623Z,2.77
2019-06-27T22:13:23.202Z,2.13
2019-06-27T22:15:53.394Z,2.70
2019-06-27T22:18:20.964Z,2.43
2019-06-27T22:20:48.544Z,2.33
2019-06-27T22:23:16.156Z,2.90
2019-06-27T22:25:43.738Z,2.33
2019-06-27T22:28:11.338Z,2.70
2019-06-27T22:30:39.678Z,2.47
2019-06-27T22:33:07.289Z,2.23
2019-06-27T22:35:34.892Z,2.90
2019-06-27T22:38:20.694Z,2.67
2019-06-27T22:41:06.425Z,2.47
2019-06-27T22:43:52.263Z,2.90
2019-06-27T22:46:38.557Z,3.00
2019-06-27T22:49:05.661Z,2.10
2019-06-27T22:51:34.004Z,2.60
2019-06-27T22:54:01.586Z,2.57
2019-06-27T22:56:29.198Z,2.83
2019-06-27T22:58:56.766Z,3.10
2019-06-27T23:01:24.343Z,3.00
2019-06-27T23:03:51.967Z,2.83
2019-06-27T23:06:19.535Z,2.50
2019-06-27T23:08:47.179Z,2.93
2019-06-27T23:11:15.001Z,2.77
2019-06-27T23:13:42.575Z,2.50
2019-06-27T23:16:10.153Z,2.73
2019-06-27T23:18:37.744Z,4.10
2019-06-27T23:21:05.322Z,4.17
2019-06-27T23:23:32.936Z,3.97
2019-06-27T23:26:00.513Z,3.43
2019-06-27T23:28:28.850Z,2.97
2019-06-27T23:30:56.457Z,3.83
2019-06-27T23:33:24.030Z,4.07
2019-06-27T23:35:51.623Z,4.53
2019-06-27T23:38:19.197Z,3.97
2019-06-27T23:40:46.813Z,3.07
2019-06-27T23:43:14.387Z,3.60
2019-06-27T23:45:41.958Z,3.63
2019-06-27T23:48:09.552Z,3.70
2019-06-27T23:50:37.130Z,3.87
2019-06-27T23:53:04.742Z,3.83
2019-06-27T23:55:32.360Z,3.37
2019-06-27T23:57:59.939Z,3.40
